Time;durP1;ratioP1;P1;durP2;ratioP2;P2;SDS_P1;SDS_P2;PMS_P1;PMS_P2;Temp;Humidity;BMP_temperature;BMP_pressure;BME280_temperature;BME280_humidity;BME280_pressure;Samples;Min_cycle;Max_cycle;Signal;HPM_P1;HPM_P2
2024/01/02 00:01:29;;;;;;;12.57;2.80;;;;;;;;;;4991286;28;20408;-61
2024/01/02 00:03:54;;;;;;;13.97;2.90;;;;;;;;;;4996709;28;20469;-61
2024/01/02 00:06:19;;;;;;;15.43;2.80;;;;;;;;;;4991965;28;22023;-61
2024/01/02 00:08:45;;;;;;;14.43;3.10;;;;;;;;;;4998928;28;20501;-61
2024/01/02 00:11:10;;;;;;;10.57;3.20;;;;;;;;;;5002481;28;20408;-61
2024/01/02 00:13:35;;;;;;;14.53;2.73;;;;;;;;;;5003367;28;20401;-61
2024/01/02 00:16:01;;;;;;;11.83;2.63;;;;;;;;;;5012155;28;20429;-62
2024/01/02 00:18:26;;;;;;;11.75;2.67;;;;;;;;;;5001188;28;20424;-61
2024/01/02 00:20:51;;;;;;;13.50;2.70;;;;;;;;;;5002152;28;20926;-61
2024/01/02 00:23:17;;;;;;;13.70;3.10;;;;;;;;;;4997232;28;20406;-61
2024/01/02 00:25:42;;;;;;;12.27;2.67;;;;;;;;;;4995951;28;20393;-61
2024/01/02 00:28:08;;;;;;;13.88;3.20;;;;;;;;;;4993782;28;20513;-61
2024/01/02 00:30:34;;;;;;;12.23;2.63;;;;;;;;;;4998979;28;20440;-61
2024/01/02 00:33:03;;;;;;;10.60;2.50;;;;;;;;;;5003139;28;20445;-61
2024/01/02 00:35:28;;;;;;;11.70;3.05;;;;;;;;;;5002232;28;20405;-61
2024/01/02 00:37:53;;;;;;;12.60;2.70;;;;;;;;;;5001597;28;20443;-61
2024/01/02 00:40:19;;;;;;;10.90;3.10;;;;;;;;;;5001687;28;20409;-61
2024/01/02 00:42:44;;;;;;;10.67;2.63;;;;;;;;;;5002071;28;20520;-61
2024/01/02 00:45:09;;;;;;;12.87;2.70;;;;;;;;;;5000146;28;20408;-61
2024/01/02 00:47:34;;;;;;;12.40;3.03;;;;;;;;;;4995255;28;20507;-61
2024/01/02 00:50:00;;;;;;;12.13;2.50;;;;;;;;;;4989599;28;20420;-61
2024/01/02 00:52:25;;;;;;;14.77;2.70;;;;;;;;;;4996547;28;20429;-61
2024/01/02 00:54:52;;;;;;;11.87;2.80;;;;;;;;;;5002887;28;20835;-61
2024/01/02 00:57:17;;;;;;;13.73;2.67;;;;;;;;;;5000804;28;20968;-61
2024/01/02 00:59:42;;;;;;;12.57;2.60;;;;;;;;;;5003417;28;20484;-61
2024/01/02 01:02:08;;;;;;;13.97;2.80;;;;;;;;;;5002103;28;20405;-62
2024/01/02 01:04:33;;;;;;;13.10;3.03;;;;;;;;;;5001973;28;20974;-61
2024/01/02 01:06:58;;;;;;;11.43;2.60;;;;;;;;;;5001809;28;20921;-61
2024/01/02 01:09:24;;;;;;;11.37;2.60;;;;;;;;;;4994765;28;20397;-61
2024/01/02 01:11:49;;;;;;;11.87;2.67;;;;;;;;;;4993549;28;20513;-61
2024/01/02 01:14:14;;;;;;;12.10;2.60;;;;;;;;;;4994596;28;20944;-61
2024/01/02 01:16:39;;;;;;;10.77;2.40;;;;;;;;;;5001490;28;20412;-61
2024/01/02 01:19:05;;;;;;;12.07;2.50;;;;;;;;;;5000306;28;20425;-61
2024/01/02 01:21:30;;;;;;;11.17;2.13;;;;;;;;;;5001073;28;20408;-61
2024/01/02 01:23:55;;;;;;;9.13;2.00;;;;;;;;;;5001703;28;20395;-61
2024/01/02 01:26:21;;;;;;;11.13;2.63;;;;;;;;;;5000774;28;20397;-61
2024/01/02 01:28:46;;;;;;;11.70;2.27;;;;;;;;;;5001669;28;20412;-61
2024/01/02 01:31:11;;;;;;;8.87;1.90;;;;;;;;;;4996150;28;20423;-61
2024/01/02 01:33:36;;;;;;;7.90;1.70;;;;;;;;;;5009063;28;20403;-61
2024/01/02 01:36:02;;;;;;;9.37;1.80;;;;;;;;;;5011885;28;21095;-62
2024/01/02 01:38:27;;;;;;;9.17;2.20;;;;;;;;;;4998905;28;20419;-61
2024/01/02 01:40:52;;;;;;;9.87;2.40;;;;;;;;;;5000431;28;20423;-61
2024/01/02 01:43:18;;;;;;;7.60;1.80;;;;;;;;;;5001032;28;20404;-61
2024/01/02 01:45:43;;;;;;;8.33;1.70;;;;;;;;;;5001300;28;20931;-61
2024/01/02 01:48:09;;;;;;;7.50;1.70;;;;;;;;;;4995232;28;20986;-62
2024/01/02 01:50:34;;;;;;;9.35;2.30;;;;;;;;;;5000466;28;20808;-61
2024/01/02 01:53:00;;;;;;;8.43;1.90;;;;;;;;;;4998194;28;20397;-61
2024/01/02 01:55:25;;;;;;;7.23;1.60;;;;;;;;;;4992996;28;20422;-61
2024/01/02 01:57:50;;;;;;;7.73;1.80;;;;;;;;;;4993762;28;20484;-61
2024/01/02 02:00:16;;;;;;;8.68;1.77;;;;;;;;;;5013223;28;20506;-61
2024/01/02 02:02:41;;;;;;;9.63;1.80;;;;;;;;;;5001540;28;20419;-61
2024/01/02 02:05:07;;;;;;;7.90;1.60;;;;;;;;;;5000497;28;20432;-62
2024/01/02 02:07:32;;;;;;;7.63;1.80;;;;;;;;;;5000793;28;20493;-61
2024/01/02 02:09:57;;;;;;;7.00;1.70;;;;;;;;;;5034393;28;20482;-61
2024/01/02 02:12:22;;;;;;;8.63;1.70;;;;;;;;;;5002529;28;20400;-61
2024/01/02 02:14:48;;;;;;;5.20;1.80;;;;;;;;;;5000244;28;20416;-61
2024/01/02 02:17:19;;;;;;;6.83;1.80;;;;;;;;;;4993443;28;20540;-62
2024/01/02 02:19:44;;;;;;;6.43;1.48;;;;;;;;;;5011976;28;20426;-61
2024/01/02 02:22:10;;;;;;;6.10;1.63;;;;;;;;;;5001442;28;21311;-61
2024/01/02 02:24:35;;;;;;;6.27;1.40;;;;;;;;;;5034362;28;20478;-62
2024/01/02 02:27:00;;;;;;;5.43;1.17;;;;;;;;;;5008548;28;20824;-62
2024/01/02 02:29:25;;;;;;;5.37;1.10;;;;;;;;;;4999929;28;20416;-61
2024/01/02 02:31:51;;;;;;;5.97;1.40;;;;;;;;;;4999445;28;20534;-60
2024/01/02 02:34:16;;;;;;;5.47;1.20;;;;;;;;;;5000132;28;20445;-61
2024/01/02 02:36:41;;;;;;;5.90;0.90;;;;;;;;;;4999793;28;20401;-61
2024/01/02 02:39:09;;;;;;;5.37;1.20;;;;;;;;;;4994849;28;20412;-61
2024/01/02 02:41:34;;;;;;;4.70;1.13;;;;;;;;;;4992234;28;20409;-61
2024/01/02 02:43:59;;;;;;;5.50;1.40;;;;;;;;;;4993085;28;20401;-61
2024/01/02 02:46:25;;;;;;;5.50;1.10;;;;;;;;;;4997740;28;20993;-61
2024/01/02 02:48:50;;;;;;;4.60;1.33;;;;;;;;;;4995582;28;20396;-61
2024/01/02 02:51:15;;;;;;;3.50;1.00;;;;;;;;;;4999244;28;20421;-61
2024/01/02 02:53:40;;;;;;;4.23;1.10;;;;;;;;;;5000216;28;20408;-61
2024/01/02 02:56:06;;;;;;;3.17;1.20;;;;;;;;;;4999780;28;20427;-61
2024/01/02 02:58:31;;;;;;;4.03;0.90;;;;;;;;;;5012494;28;21005;-61
2024/01/02 03:00:57;;;;;;;3.63;0.90;;;;;;;;;;4996777;28;20408;-61
2024/01/02 03:03:22;;;;;;;4.43;1.10;;;;;;;;;;4991933;28;20401;-61
2024/01/02 03:05:48;;;;;;;3.53;0.87;;;;;;;;;;4992710;28;20400;-61
2024/01/02 03:08:13;;;;;;;5.03;0.90;;;;;;;;;;5005949;28;20924;-61
2024/01/02 03:10:39;;;;;;;6.00;1.00;;;;;;;;;;5027144;28;20414;-61
2024/01/02 03:13:04;;;;;;;4.60;1.13;;;;;;;;;;5028420;28;20399;-62
2024/01/02 03:15:29;;;;;;;4.40;1.00;;;;;;;;;;5028489;28;20886;-61
2024/01/02 03:17:54;;;;;;;3.03;0.90;;;;;;;;;;5027661;28;20498;-61
2024/01/02 03:20:20;;;;;;;4.03;0.93;;;;;;;;;;5027163;28;20920;-61
2024/01/02 03:22:45;;;;;;;3.03;0.90;;;;;;;;;;5028151;28;20486;-61
2024/01/02 03:25:10;;;;;;;3.57;1.00;;;;;;;;;;5027199;28;20394;-61
2024/01/02 03:27:36;;;;;;;3.45;0.80;;;;;;;;;;5028524;28;20399;-61
2024/01/02 03:30:01;;;;;;;3.50;0.90;;;;;;;;;;5012902;28;20955;-61
2024/01/02 03:32:27;;;;;;;3.93;0.90;;;;;;;;;;4998904;28;20432;-61
2024/01/02 03:34:52;;;;;;;3.78;0.98;;;;;;;;;;4999535;28;20480;-61
2024/01/02 03:37:18;;;;;;;2.17;0.83;;;;;;;;;;5008208;28;20415;-61
2024/01/02 03:39:43;;;;;;;3.00;0.70;;;;;;;;;;5017164;28;20402;-61
2024/01/02 03:42:08;;;;;;;3.00;0.90;;;;;;;;;;5018408;28;20518;-61
2024/01/02 03:44:33;;;;;;;3.33;0.90;;;;;;;;;;5010651;28;20405;-61
2024/01/02 03:46:59;;;;;;;1.80;0.70;;;;;;;;;;4993178;28;20467;-61
2024/01/02 03:49:25;;;;;;;2.17;0.90;;;;;;;;;;4987462;28;20456;-61
2024/01/02 03:51:50;;;;;;;2.90;0.77;;;;;;;;;;5010019;28;20879;-61
2024/01/02 03:54:16;;;;;;;3.47;0.80;;;;;;;;;;5016040;28;20396;-61
2024/01/02 03:56:41;;;;;;;2.50;0.70;;;;;;;;;;5012443;28;20771;-61
2024/01/02 03:59:06;;;;;;;2.53;0.93;;;;;;;;;;4999449;28;20409;-61
2024/01/02 04:01:32;;;;;;;2.87;0.90;;;;;;;;;;4998214;28;20421;-61
2024/01/02 04:03:57;;;;;;;1.10;0.60;;;;;;;;;;4999330;28;20726;-61
2024/01/02 04:06:22;;;;;;;2.57;0.60;;;;;;;;;;4998654;28;20476;-61
2024/01/02 04:08:47;;;;;;;2.33;0.60;;;;;;;;;;4995152;28;20975;-61
2024/01/02 04:11:16;;;;;;;1.60;0.60;;;;;;;;;;4990794;28;20400;-61
2024/01/02 04:13:41;;;;;;;1.50;0.50;;;;;;;;;;4991486;28;20534;-61
2024/01/02 04:16:06;;;;;;;2.13;0.70;;;;;;;;;;4995106;28;20408;-61
2024/01/02 04:18:32;;;;;;;1.77;0.50;;;;;;;;;;4998906;28;20774;-61
2024/01/02 04:20:57;;;;;;;1.40;0.50;;;;;;;;;;4998279;28;20417;-61
2024/01/02 04:23:23;;;;;;;1.03;0.50;;;;;;;;;;4998169;28;20482;-61
2024/01/02 04:25:48;;;;;;;2.30;0.50;;;;;;;;;;4999217;28;21379;-61
2024/01/02 04:28:13;;;;;;;1.42;0.50;;;;;;;;;;4997677;28;20563;-61
2024/01/02 04:30:38;;;;;;;1.93;0.50;;;;;;;;;;4997867;28;20804;-61
2024/01/02 04:33:04;;;;;;;0.93;0.43;;;;;;;;;;4991588;28;21043;-61
2024/01/02 04:35:29;;;;;;;1.03;0.40;;;;;;;;;;4991145;28;20436;-61
2024/01/02 04:37:54;;;;;;;0.85;0.40;;;;;;;;;;4992744;28;20427;-61
2024/01/02 04:40:20;;;;;;;0.80;0.30;;;;;;;;;;4997959;28;20480;-61
2024/01/02 04:42:46;;;;;;;1.17;0.30;;;;;;;;;;4998462;28;20458;-61
2024/01/02 04:45:11;;;;;;;0.60;0.50;;;;;;;;;;4999380;28;20409;-61
2024/01/02 04:47:36;;;;;;;1.10;0.50;;;;;;;;;;4998985;28;20524;-61
2024/01/02 04:50:02;;;;;;;0.87;0.37;;;;;;;;;;4992288;28;20431;-61
2024/01/02 04:52:27;;;;;;;0.63;0.30;;;;;;;;;;4999123;28;20403;-61
2024/01/02 04:54:52;;;;;;;0.40;0.27;;;;;;;;;;5011058;28;21183;-61
2024/01/02 04:57:17;;;;;;;0.27;0.27;;;;;;;;;;5002751;28;20413;-61
2024/01/02 04:59:43;;;;;;;0.63;0.27;;;;;;;;;;4994387;28;20403;-61
2024/01/02 05:02:09;;;;;;;1.50;0.30;;;;;;;;;;5000771;28;20415;-61
2024/01/02 05:04:34;;;;;;;0.33;0.20;;;;;;;;;;5001605;28;20807;-61
2024/01/02 05:06:59;;;;;;;0.40;0.23;;;;;;;;;;5002355;28;20970;-61
2024/01/02 05:09:25;;;;;;;0.20;0.20;;;;;;;;;;5001834;28;20396;-61
2024/01/02 05:11:50;;;;;;;0.70;0.20;;;;;;;;;;5007008;28;20987;-61
2024/01/02 05:14:17;;;;;;;0.60;0.30;;;;;;;;;;5001744;28;20389;-61
2024/01/02 05:16:42;;;;;;;0.60;0.20;;;;;;;;;;4998620;28;20990;-61
2024/01/02 05:19:07;;;;;;;0.30;0.30;;;;;;;;;;4993810;28;20397;-61
2024/01/02 05:21:32;;;;;;;0.50;0.20;;;;;;;;;;5006996;28;21171;-61
2024/01/02 05:23:58;;;;;;;0.30;0.20;;;;;;;;;;4997437;28;20470;-60
2024/01/02 05:26:23;;;;;;;0.50;0.20;;;;;;;;;;5001174;28;20397;-61
2024/01/02 05:28:48;;;;;;;0.30;0.20;;;;;;;;;;5001813;28;20435;-60
2024/01/02 05:31:13;;;;;;;0.60;0.20;;;;;;;;;;4999997;28;20519;-61
2024/01/02 05:33:39;;;;;;;0.33;0.30;;;;;;;;;;5020781;28;20406;-60
2024/01/02 05:36:04;;;;;;;0.27;0.27;;;;;;;;;;5018787;28;20423;-61
2024/01/02 05:38:30;;;;;;;0.33;0.30;;;;;;;;;;5000013;28;20397;-61
2024/01/02 05:40:55;;;;;;;0.28;0.28;;;;;;;;;;4994666;28;20510;-61
2024/01/02 05:43:20;;;;;;;0.50;0.50;;;;;;;;;;4993681;28;20388;-61
2024/01/02 05:45:45;;;;;;;0.43;0.43;;;;;;;;;;4995268;28;20401;-61
2024/01/02 05:48:11;;;;;;;0.73;0.50;;;;;;;;;;5001886;28;20399;-60
2024/01/02 05:50:36;;;;;;;0.90;0.70;;;;;;;;;;5028954;28;20743;-61
2024/01/02 05:53:01;;;;;;;0.50;0.50;;;;;;;;;;5013188;28;20519;-62
2024/01/02 05:55:27;;;;;;;0.57;0.40;;;;;;;;;;5001691;28;20543;-61
2024/01/02 05:57:52;;;;;;;0.60;0.40;;;;;;;;;;5000950;28;21036;-60
2024/01/02 06:00:17;;;;;;;0.67;0.50;;;;;;;;;;4999985;28;21027;-61
2024/01/02 06:02:43;;;;;;;0.90;0.63;;;;;;;;;;5001404;28;20412;-61
2024/01/02 06:05:08;;;;;;;0.90;0.80;;;;;;;;;;5019727;28;21082;-60
2024/01/02 06:07:33;;;;;;;0.90;0.60;;;;;;;;;;5013508;28;20888;-61
2024/01/02 06:09:59;;;;;;;1.00;0.67;;;;;;;;;;5012446;28;20409;-61
2024/01/02 06:12:24;;;;;;;1.30;0.68;;;;;;;;;;4995416;28;20408;-61
2024/01/02 06:14:49;;;;;;;0.60;0.60;;;;;;;;;;4998398;28;20796;-61
2024/01/02 06:17:15;;;;;;;1.10;0.50;;;;;;;;;;5000561;28;20475;-61
2024/01/02 06:19:40;;;;;;;0.83;0.70;;;;;;;;;;4999961;28;20408;-61
2024/01/02 06:22:05;;;;;;;0.97;0.80;;;;;;;;;;5000078;28;20958;-61
2024/01/02 06:24:30;;;;;;;0.63;0.63;;;;;;;;;;5000622;28;20397;-61
2024/01/02 06:26:56;;;;;;;0.70;0.70;;;;;;;;;;5000832;28;21255;-61
2024/01/02 06:29:21;;;;;;;1.10;0.90;;;;;;;;;;4996488;28;20401;-61
2024/01/02 06:31:47;;;;;;;1.10;0.80;;;;;;;;;;4992987;28;20405;-61
2024/01/02 06:34:12;;;;;;;1.20;1.10;;;;;;;;;;4992658;28;20485;-61
2024/01/02 06:36:37;;;;;;;2.20;1.30;;;;;;;;;;4996854;28;21348;-61
2024/01/02 06:39:02;;;;;;;1.13;1.00;;;;;;;;;;5000137;28;20405;-61
2024/01/02 06:41:28;;;;;;;1.40;1.00;;;;;;;;;;4999302;28;20416;-61
2024/01/02 06:43:53;;;;;;;1.20;1.10;;;;;;;;;;5001027;28;20403;-61
2024/01/02 06:46:18;;;;;;;1.20;1.10;;;;;;;;;;5018596;28;20392;-61
2024/01/02 06:48:44;;;;;;;1.33;1.10;;;;;;;;;;5012777;28;20425;-61
2024/01/02 06:51:09;;;;;;;1.43;1.20;;;;;;;;;;4999219;28;20908;-61
2024/01/02 06:53:34;;;;;;;1.20;1.10;;;;;;;;;;4993395;28;21188;-61
2024/01/02 06:55:59;;;;;;;1.33;1.17;;;;;;;;;;4992185;28;21147;-61
2024/01/02 06:58:25;;;;;;;2.50;1.70;;;;;;;;;;4992861;28;21004;-61
2024/01/02 07:00:50;;;;;;;2.10;1.50;;;;;;;;;;4998707;28;20444;-61
2024/01/02 07:03:17;;;;;;;2.95;2.00;;;;;;;;;;4999245;28;20389;-61
2024/01/02 07:05:42;;;;;;;2.97;2.20;;;;;;;;;;5000014;28;20412;-61
2024/01/02 07:08:07;;;;;;;3.03;2.17;;;;;;;;;;4999718;28;20979;-61
2024/01/02 07:10:32;;;;;;;3.70;2.40;;;;;;;;;;4998949;28;20538;-61
2024/01/02 07:12:58;;;;;;;4.63;2.80;;;;;;;;;;5000244;28;20440;-61
2024/01/02 07:15:24;;;;;;;6.05;3.10;;;;;;;;;;4994802;28;20475;-61
2024/01/02 07:17:49;;;;;;;5.72;3.53;;;;;;;;;;4991065;28;20419;-61
2024/01/02 07:20:14;;;;;;;7.20;3.60;;;;;;;;;;4991371;28;20780;-61
2024/01/02 07:22:40;;;;;;;6.73;3.57;;;;;;;;;;4997289;28;20396;-61
2024/01/02 07:25:05;;;;;;;8.20;4.03;;;;;;;;;;4998479;28;20392;-61
2024/01/02 07:27:30;;;;;;;8.87;4.10;;;;;;;;;;4999163;28;20397;-61
2024/01/02 07:29:55;;;;;;;9.30;4.37;;;;;;;;;;4998651;28;20508;-61
2024/01/02 07:32:21;;;;;;;9.02;4.50;;;;;;;;;;4998112;28;20412;-60
2024/01/02 07:34:46;;;;;;;9.07;4.20;;;;;;;;;;5000082;28;20435;-61
2024/01/02 07:37:12;;;;;;;8.07;4.03;;;;;;;;;;4996498;28;21136;-61
2024/01/02 07:39:37;;;;;;;9.73;4.30;;;;;;;;;;4990960;28;20411;-61
2024/01/02 07:42:04;;;;;;;9.15;4.07;;;;;;;;;;5010853;28;20404;-61
2024/01/02 07:44:29;;;;;;;8.88;3.85;;;;;;;;;;5006207;28;20420;-60
2024/01/02 07:46:54;;;;;;;10.50;4.17;;;;;;;;;;4998843;28;20409;-61
2024/01/02 07:49:19;;;;;;;9.97;3.57;;;;;;;;;;4994338;28;20863;-61
2024/01/02 07:51:46;;;;;;;9.52;3.70;;;;;;;;;;5017126;28;20399;-60
2024/01/02 07:54:11;;;;;;;12.43;3.67;;;;;;;;;;5018118;28;20403;-60
2024/01/02 07:56:36;;;;;;;13.83;3.70;;;;;;;;;;5013164;28;20482;-60
2024/01/02 07:59:02;;;;;;;11.60;3.67;;;;;;;;;;4999099;28;20452;-60
2024/01/02 08:01:27;;;;;;;13.63;4.32;;;;;;;;;;5009906;28;20494;-60
2024/01/02 08:03:53;;;;;;;13.53;3.40;;;;;;;;;;5022033;28;20395;-60
2024/01/02 08:06:18;;;;;;;12.47;2.80;;;;;;;;;;5026534;28;20409;-60
2024/01/02 08:08:43;;;;;;;14.80;2.93;;;;;;;;;;5027251;28;20399;-60
2024/01/02 08:11:09;;;;;;;13.47;3.00;;;;;;;;;;5026585;28;20902;-60
2024/01/02 08:13:34;;;;;;;15.73;5.97;;;;;;;;;;5026214;28;20410;-60
2024/01/02 08:16:00;;;;;;;17.70;7.30;;;;;;;;;;5027538;28;20953;-60
2024/01/02 08:18:25;;;;;;;14.98;4.28;;;;;;;;;;5026537;28;20383;-60
2024/01/02 08:20:50;;;;;;;18.13;4.47;;;;;;;;;;5026250;28;20877;-60
2024/01/02 08:23:16;;;;;;;13.70;3.53;;;;;;;;;;5026740;28;20484;-60
2024/01/02 08:25:41;;;;;;;13.87;3.00;;;;;;;;;;5027690;28;20406;-60
2024/01/02 08:28:07;;;;;;;15.02;3.08;;;;;;;;;;5025903;28;20772;-60
2024/01/02 08:30:32;;;;;;;15.30;3.20;;;;;;;;;;5026896;28;20909;-60
2024/01/02 08:32:58;;;;;;;14.63;3.50;;;;;;;;;;5030895;28;20398;-60
2024/01/02 08:35:23;;;;;;;11.70;3.07;;;;;;;;;;5030313;28;20383;-60
2024/01/02 08:37:49;;;;;;;11.93;3.20;;;;;;;;;;5030846;28;20466;-60
2024/01/02 08:40:14;;;;;;;13.57;3.53;;;;;;;;;;5030340;28;20426;-60
2024/01/02 08:42:39;;;;;;;15.07;3.20;;;;;;;;;;5030153;28;20831;-60
2024/01/02 08:45:05;;;;;;;14.93;3.20;;;;;;;;;;5030855;28;20410;-60
2024/01/02 08:47:32;;;;;;;15.77;3.47;;;;;;;;;;5029603;28;20426;-60
2024/01/02 08:49:57;;;;;;;16.27;3.58;;;;;;;;;;5023562;28;20464;-60
2024/01/02 08:52:22;;;;;;;12.87;3.27;;;;;;;;;;5029095;28;20914;-60
2024/01/02 08:54:47;;;;;;;19.00;4.03;;;;;;;;;;5029405;28;20442;-60
2024/01/02 08:57:13;;;;;;;19.27;3.50;;;;;;;;;;5028216;28;20410;-61
2024/01/02 08:59:38;;;;;;;19.00;3.63;;;;;;;;;;5028774;28;20403;-61
2024/01/02 09:02:04;;;;;;;20.13;3.70;;;;;;;;;;5026904;28;20570;-61
2024/01/02 09:04:29;;;;;;;22.03;5.03;;;;;;;;;;5023201;28;20403;-61
2024/01/02 09:06:54;;;;;;;18.50;3.80;;;;;;;;;;5027173;28;20750;-60
2024/01/02 09:09:19;;;;;;;20.00;4.20;;;;;;;;;;5027753;28;20938;-60
2024/01/02 09:11:46;;;;;;;22.90;4.50;;;;;;;;;;5028363;28;20430;-60
2024/01/02 09:14:11;;;;;;;20.85;4.05;;;;;;;;;;5022132;28;20431;-60
2024/01/02 09:16:38;;;;;;;18.00;4.20;;;;;;;;;;5027919;28;20434;-60
2024/01/02 09:19:03;;;;;;;18.00;3.73;;;;;;;;;;5028211;28;20415;-60
2024/01/02 09:21:29;;;;;;;22.33;4.28;;;;;;;;;;5028110;28;20588;-60
2024/01/02 09:23:54;;;;;;;19.33;4.20;;;;;;;;;;5028525;28;20402;-60
2024/01/02 09:26:19;;;;;;;18.20;3.90;;;;;;;;;;5027858;28;20396;-60
2024/01/02 09:28:45;;;;;;;18.73;4.13;;;;;;;;;;5027077;28;20817;-60
2024/01/02 09:31:10;;;;;;;20.50;4.67;;;;;;;;;;5026892;28;20415;-60
2024/01/02 09:33:37;;;;;;;20.43;8.50;;;;;;;;;;5028763;28;20405;-60
2024/01/02 09:36:02;;;;;;;28.70;13.18;;;;;;;;;;5028461;28;21032;-61
2024/01/02 09:38:27;;;;;;;58.40;32.53;;;;;;;;;;5027982;28;20407;-60
2024/01/02 09:41:11;;;;;;;53.13;28.13;;;;;;;;;;5028048;28;20403;-60
2024/01/02 09:43:57;;;;;;;23.05;5.57;;;;;;;;;;5028354;28;20386;-60
2024/01/02 09:46:25;;;;;;;17.42;3.85;;;;;;;;;;5026023;28;20429;-60
2024/01/02 09:48:52;;;;;;;17.05;3.80;;;;;;;;;;5024036;28;21024;-60
2024/01/02 09:51:17;;;;;;;16.40;4.00;;;;;;;;;;5027190;28;20419;-60
2024/01/02 09:53:48;;;;;;;18.07;4.10;;;;;;;;;;5028501;28;20411;-60
2024/01/02 09:56:16;;;;;;;18.92;4.63;;;;;;;;;;5042851;28;20472;-60
2024/01/02 09:58:44;;;;;;;14.82;5.05;;;;;;;;;;5027829;28;20790;-60
2024/01/02 10:01:09;;;;;;;18.40;4.70;;;;;;;;;;5026946;28;20477;-60
2024/01/02 10:03:39;;;;;;;12.97;3.57;;;;;;;;;;5028494;28;20407;-60
2024/01/02 10:06:09;;;;;;;13.30;3.83;;;;;;;;;;5026154;28;20403;-60
2024/01/02 10:08:40;;;;;;;14.85;3.95;;;;;;;;;;5028070;28;20414;-60
2024/01/02 10:11:07;;;;;;;13.15;3.90;;;;;;;;;;5027311;28;20400;-60
2024/01/02 10:13:37;;;;;;;15.95;4.43;;;;;;;;;;5027334;28;20457;-60
2024/01/02 10:16:07;;;;;;;16.48;4.90;;;;;;;;;;5040449;28;20996;-61
2024/01/02 10:18:35;;;;;;;14.90;4.93;;;;;;;;;;5028197;28;20403;-60
2024/01/02 10:21:07;;;;;;;16.33;5.47;;;;;;;;;;5026242;28;20415;-62
2024/01/02 10:23:32;;;;;;;14.82;5.15;;;;;;;;;;5028193;28;20407;-60
2024/01/02 10:25:59;;;;;;;13.00;6.10;;;;;;;;;;5028098;28;20469;-60
2024/01/02 10:28:25;;;;;;;15.52;6.30;;;;;;;;;;5027034;28;20457;-60
2024/01/02 10:30:51;;;;;;;14.23;6.00;;;;;;;;;;5027180;28;20434;-61
2024/01/02 10:33:28;;;;;;;15.33;7.07;;;;;;;;;;5027823;28;20431;-61
2024/01/02 10:35:54;;;;;;;26.45;17.25;;;;;;;;;;5026278;28;20418;-60
2024/01/02 10:38:23;;;;;;;35.85;25.95;;;;;;;;;;5032582;28;20410;-60
2024/01/02 10:40:50;;;;;;;15.70;9.43;;;;;;;;;;5046457;28;20768;-60
2024/01/02 10:43:20;;;;;;;13.60;6.97;;;;;;;;;;5031985;28;20754;-60
2024/01/02 10:45:57;;;;;;;11.07;6.55;;;;;;;;;;5042677;28;20948;-61
2024/01/02 10:48:37;;;;;;;11.20;5.55;;;;;;;;;;5020312;28;20936;-61
2024/01/02 10:51:04;;;;;;;13.07;5.97;;;;;;;;;;5025162;28;20849;-61
2024/01/02 10:53:42;;;;;;;12.20;5.38;;;;;;;;;;5026938;28;20407;-61
2024/01/02 10:56:13;;;;;;;10.88;5.55;;;;;;;;;;5024749;28;20861;-61
2024/01/02 10:58:41;;;;;;;10.30;5.13;;;;;;;;;;5027332;28;20403;-61
2024/01/02 11:01:08;;;;;;;8.45;5.30;;;;;;;;;;5024873;28;20500;-61
2024/01/02 11:03:34;;;;;;;8.83;4.77;;;;;;;;;;5026681;28;20402;-61
2024/01/02 11:06:06;;;;;;;7.53;4.38;;;;;;;;;;5027171;28;20403;-61
2024/01/02 11:08:37;;;;;;;9.65;4.30;;;;;;;;;;5026109;28;20403;-61
2024/01/02 11:11:04;;;;;;;7.70;4.07;;;;;;;;;;5041331;28;20406;-61
2024/01/02 11:13:30;;;;;;;5.57;3.53;;;;;;;;;;5042296;28;20383;-61
2024/01/02 11:15:57;;;;;;;6.10;3.17;;;;;;;;;;5041476;28;20747;-61
2024/01/02 11:18:23;;;;;;;4.55;2.80;;;;;;;;;;5024992;28;20399;-62
2024/01/02 11:20:55;;;;;;;6.80;3.37;;;;;;;;;;5024467;28;21141;-61
2024/01/02 11:23:21;;;;;;;5.28;2.40;;;;;;;;;;5025256;28;20407;-61
2024/01/02 11:25:50;;;;;;;4.15;2.50;;;;;;;;;;5026207;28;20647;-61
2024/01/02 11:28:16;;;;;;;3.10;2.05;;;;;;;;;;5024291;28;20411;-62
2024/01/02 11:30:42;;;;;;;3.10;1.90;;;;;;;;;;5023423;28;20933;-62
2024/01/02 11:33:08;;;;;;;2.72;1.67;;;;;;;;;;5025750;28;20410;-62
2024/01/02 11:35:36;;;;;;;1.90;1.50;;;;;;;;;;5026035;28;20415;-62
2024/01/02 11:38:06;;;;;;;2.47;1.42;;;;;;;;;;5024986;28;20468;-62
2024/01/02 11:40:34;;;;;;;2.30;1.27;;;;;;;;;;5039226;28;20515;-62
2024/01/02 11:42:59;;;;;;;1.75;1.15;;;;;;;;;;5026089;28;20410;-61
2024/01/02 11:45:26;;;;;;;1.40;1.00;;;;;;;;;;5024630;28;20399;-61
2024/01/02 11:47:56;;;;;;;2.00;1.00;;;;;;;;;;5023466;28;20415;-61
2024/01/02 11:50:22;;;;;;;1.20;0.90;;;;;;;;;;5023460;28;20414;-61
2024/01/02 11:52:53;;;;;;;2.45;1.00;;;;;;;;;;5023719;28;20403;-61
2024/01/02 11:55:18;;;;;;;1.00;0.80;;;;;;;;;;5025886;28;20383;-61
2024/01/02 11:57:51;;;;;;;0.87;0.80;;;;;;;;;;5025338;28;20411;-61
2024/01/02 12:00:20;;;;;;;1.25;0.80;;;;;;;;;;5024613;28;20407;-62
2024/01/02 12:02:55;;;;;;;1.55;0.85;;;;;;;;;;5005096;28;20393;-61
2024/01/02 12:05:22;;;;;;;1.83;0.80;;;;;;;;;;5003578;28;20783;-62
2024/01/02 12:07:48;;;;;;;0.85;0.80;;;;;;;;;;5012744;28;20474;-61
2024/01/02 12:10:14;;;;;;;1.30;0.75;;;;;;;;;;5023399;28;20486;-61
2024/01/02 12:12:40;;;;;;;0.90;0.60;;;;;;;;;;5023598;28;20402;-61
2024/01/02 12:15:10;;;;;;;0.93;0.50;;;;;;;;;;5023278;28;20978;-61
2024/01/02 12:17:52;;;;;;;0.90;0.50;;;;;;;;;;5040715;28;20403;-61
2024/01/02 12:20:17;;;;;;;0.70;0.52;;;;;;;;;;4961160;28;1803811;-61
2024/01/02 12:22:42;;;;;;;1.20;0.50;;;;;;;;;;5026389;28;20399;-61
2024/01/02 12:25:08;;;;;;;0.70;0.60;;;;;;;;;;5025873;28;20404;-61
2024/01/02 12:27:34;;;;;;;2.63;1.37;;;;;;;;;;5025633;28;20405;-60
2024/01/02 12:30:02;;;;;;;1.30;0.90;;;;;;;;;;5020700;28;20541;-61
2024/01/02 12:32:36;;;;;;;7.40;5.07;;;;;;;;;;5014497;28;20882;-61
2024/01/02 12:35:02;;;;;;;1.75;1.25;;;;;;;;;;5023858;28;20395;-61
2024/01/02 12:37:32;;;;;;;1.60;1.05;;;;;;;;;;5020048;28;20453;-61
2024/01/02 12:39:58;;;;;;;0.60;0.60;;;;;;;;;;5034195;28;20430;-60
2024/01/02 12:42:28;;;;;;;1.40;0.88;;;;;;;;;;5019830;28;20903;-60
2024/01/02 12:44:54;;;;;;;0.70;0.60;;;;;;;;;;5020050;28;20399;-60
2024/01/02 12:47:20;;;;;;;0.40;0.40;;;;;;;;;;5017783;28;20591;-61
2024/01/02 12:49:54;;;;;;;1.43;0.93;;;;;;;;;;5014889;28;20866;-61
2024/01/02 12:52:20;;;;;;;0.95;0.40;;;;;;;;;;5020775;28;20455;-61
2024/01/02 12:54:47;;;;;;;1.40;0.40;;;;;;;;;;5017907;28;20395;-61
2024/01/02 12:57:12;;;;;;;0.60;0.60;;;;;;;;;;5019785;28;20411;-60
2024/01/02 12:59:38;;;;;;;0.90;0.40;;;;;;;;;;5017582;28;20718;-61
2024/01/02 13:02:05;;;;;;;1.00;0.70;;;;;;;;;;5017694;28;20701;-61
2024/01/02 13:04:30;;;;;;;1.00;0.70;;;;;;;;;;5020276;28;20399;-61
2024/01/02 13:06:56;;;;;;;0.30;0.30;;;;;;;;;;5017824;28;20483;-61
2024/01/02 13:09:21;;;;;;;0.63;0.30;;;;;;;;;;5019192;28;20391;-61
2024/01/02 13:11:46;;;;;;;0.83;0.33;;;;;;;;;;5020044;28;20398;-61
2024/01/02 13:14:12;;;;;;;8.90;4.80;;;;;;;;;;5018272;28;20438;-61
2024/01/02 13:16:38;;;;;;;0.70;0.30;;;;;;;;;;5021912;28;20405;-61
2024/01/02 13:19:04;;;;;;;0.50;0.30;;;;;;;;;;5023211;28;20407;-61
2024/01/02 13:21:29;;;;;;;0.40;0.30;;;;;;;;;;5023097;28;20916;-61
2024/01/02 13:23:55;;;;;;;1.27;0.80;;;;;;;;;;5020005;28;20916;-61
2024/01/02 13:26:22;;;;;;;1.42;0.90;;;;;;;;;;5023323;28;20383;-61
2024/01/02 13:28:48;;;;;;;0.95;0.40;;;;;;;;;;5011009;28;20910;-61
2024/01/02 13:31:25;;;;;;;1.40;0.40;;;;;;;;;;5021778;28;20406;-61
2024/01/02 13:33:51;;;;;;;0.35;0.30;;;;;;;;;;5023932;28;20403;-61
2024/01/02 13:36:16;;;;;;;1.03;0.40;;;;;;;;;;5020034;28;20426;-60
2024/01/02 13:38:44;;;;;;;0.95;0.88;;;;;;;;;;5023478;28;20732;-60
2024/01/02 13:41:09;;;;;;;0.30;0.30;;;;;;;;;;5019922;28;20410;-60
2024/01/02 13:43:34;;;;;;;0.57;0.30;;;;;;;;;;5022547;28;21273;-60
2024/01/02 13:46:12;;;;;;;1.07;0.30;;;;;;;;;;5021881;28;20513;-60
2024/01/02 13:48:39;;;;;;;0.68;0.30;;;;;;;;;;5017985;28;20399;-61
2024/01/02 13:51:04;;;;;;;1.85;0.50;;;;;;;;;;5013896;28;20809;-60
2024/01/02 13:53:29;;;;;;;0.57;0.30;;;;;;;;;;5019194;28;20457;-60
2024/01/02 13:55:55;;;;;;;0.70;0.30;;;;;;;;;;5022153;28;20449;-60
2024/01/02 13:58:20;;;;;;;0.70;0.40;;;;;;;;;;5021462;28;20938;-61
2024/01/02 14:00:46;;;;;;;1.20;0.40;;;;;;;;;;5021129;28;20410;-60
2024/01/02 14:03:11;;;;;;;1.35;0.30;;;;;;;;;;5023040;28;20399;-61
2024/01/02 14:05:40;;;;;;;1.07;0.40;;;;;;;;;;5022442;28;20391;-61
2024/01/02 14:08:05;;;;;;;1.20;0.40;;;;;;;;;;5019692;28;20427;-61
2024/01/02 14:10:38;;;;;;;2.10;0.40;;;;;;;;;;5017956;28;21157;-61
2024/01/02 14:13:03;;;;;;;1.85;0.38;;;;;;;;;;5033827;28;20399;-61
2024/01/02 14:15:29;;;;;;;0.73;0.40;;;;;;;;;;5022033;28;20402;-61
2024/01/02 14:18:07;;;;;;;1.13;0.50;;;;;;;;;;5022562;28;20418;-60
2024/01/02 14:20:34;;;;;;;1.80;0.60;;;;;;;;;;5020896;28;20411;-60
2024/01/02 14:23:16;;;;;;;1.23;0.50;;;;;;;;;;5021992;28;20863;-60
2024/01/02 14:25:41;;;;;;;0.98;0.40;;;;;;;;;;5021609;28;20430;-60
2024/01/02 14:28:11;;;;;;;1.30;0.50;;;;;;;;;;5020499;28;20493;-61
2024/01/02 14:30:37;;;;;;;1.90;0.90;;;;;;;;;;5036421;28;20437;-60
2024/01/02 14:33:07;;;;;;;0.70;0.40;;;;;;;;;;5021351;28;20395;-61